M I D A S
Marine Information and Data Acquisition System
Tripno 878 of the Zeeleeuw from 2005-04-06 07:09:20 to 2005-04-06 10:59:48
Back to CruiseResearch ActivitiesStationsMapUnderway DataData graphs

EquipmentUnitsComments
TimeDGPSUTC
LatitudeDGPSDM.mWGS84
LongitudeDGPSDM.mWGS84
SpeedMeteo Stationm/sRelative wind speed
DirectionMeteo StationdegRelative wind direction
TemperatureMeteo Stationdeg CelciusAir temperature
PressureMeteo StationPaAtmospheric pressure
HumidityMeteo Station%Relative humidity
Missing or incorrect values are displayed as -999
Metereological data collected by the RV Zeeleeuw from 2005-04-06 07:07:31 to 2005-04-06 11:13:34
Time Latitude Longitude Speed Direction Temperature Pressure Humidity
2005-04-06 07:08 51°13.619 2°56.021 2.6 115 7.2 101720 68
2005-04-06 07:09 51°13.656 2°55.913 4.8 125 7.2 101720 67
2005-04-06 07:10 51°13.675 2°55.798 2.4 118 7.2 101720 68
2005-04-06 07:11 51°13.687 2°55.792 4.1 172 7.3 101710 67
2005-04-06 07:12 51°13.7 2°55.798 4.2 191 7.3 101700 67
2005-04-06 07:13 51°13.717 2°55.781 3.9 243 7.6 101710 68
2005-04-06 07:14 51°13.774 2°55.682 2.4 319 7.6 101710 65
2005-04-06 07:15 51°13.874 2°55.593 1.6 271 7.6 101700 65
2005-04-06 07:16 51°13.995 2°55.51 2 285 7.6 101710 66
2005-04-06 07:17 51°14.13 2°55.411 3.6 319 7.7 101700 65
2005-04-06 07:18 51°14.259 2°55.266 6 325 7.7 101690 65
2005-04-06 07:19 51°14.371 2°55.052 8 310 7.7 101690 66
2005-04-06 07:20 51°14.436 2°54.772 10.3 306 7.7 101680 65
2005-04-06 07:21 51°14.457 2°54.604 10.6 288 7.7 101670 65
2005-04-06 07:22 51°14.462 2°54.508 7.6 296 7.7 101680 67
2005-04-06 07:23 51°14.463 2°54.44 9.3 294 7.7 101670 68
2005-04-06 07:24 51°14.465 2°54.39 8.4 295 7.7 101670 67
2005-04-06 07:25 51°14.468 2°54.351 8.9 287 7.7 101670 67
2005-04-06 07:26 51°14.47 2°54.322 8.8 288 7.7 101670 69
2005-04-06 07:27 51°14.472 2°54.298 7.1 286 7.7 101670 66
2005-04-06 07:28 51°14.475 2°54.281 8.4 295 7.8 101660 66
2005-04-06 07:29 51°14.48 2°54.267 9.2 288 7.7 101660 66
2005-04-06 07:30 51°14.485 2°54.213 9.3 299 7.8 101660 67
2005-04-06 07:31 51°14.482 2°54.084 12.1 293 7.9 101660 66
2005-04-06 07:32 51°14.486 2°53.933 11.7 318 7.9 101650 67
2005-04-06 07:33 51°14.4 2°53.75 13.3 337 7.9 101640 66
2005-04-06 07:34 51°14.28 2°53.513 15.5 336 7.9 101650 67
2005-04-06 07:35 51°14.169 2°53.243 14.8 337 7.9 101650 67
2005-04-06 07:36 51°14.06 2°52.97 14 334 7.9 101650 66
2005-04-06 07:37 51°13.954 2°52.696 15.3 339 7.9 101660 67
2005-04-06 07:38 51°13.849 2°52.413 13.2 339 7.9 101650 68
2005-04-06 07:39 51°13.743 2°52.123 12.7 336 7.8 101650 69
2005-04-06 07:40 51°13.628 2°51.81 13 343 7.8 101650 68
2005-04-06 07:41 51°13.51 2°51.49 13.9 338 7.8 101630 69
2005-04-06 07:42 51°13.399 2°51.186 15.2 342 7.8 101630 69
2005-04-06 07:43 51°13.279 2°50.86 14.4 337 7.9 101620 68
2005-04-06 07:44 51°13.165 2°50.55 15.7 338 7.9 101630 70
2005-04-06 07:45 51°13.052 2°50.238 16.1 339 7.9 101620 69
2005-04-06 07:46 51°12.933 2°49.929 14.9 337 7.9 101610 69
2005-04-06 07:47 51°12.811 2°49.618 16 334 7.9 101610 68
2005-04-06 07:48 51°12.691 2°49.31 15.3 336 8 101620 68
2005-04-06 07:49 51°12.573 2°49.004 13.8 337 8 101610 67
2005-04-06 07:50 51°12.453 2°48.694 13.6 341 8.1 101630 69
2005-04-06 07:51 51°12.333 2°48.387 13.7 342 8.1 101620 68
2005-04-06 07:52 51°12.214 2°48.081 14.8 338 8.1 101620 69
2005-04-06 07:53 51°12.096 2°47.779 14.8 341 8.1 101610 69
2005-04-06 07:54 51°11.975 2°47.473 14.3 340 8.3 101610 68
2005-04-06 07:55 51°11.857 2°47.172 14.5 342 8.3 101600 67
2005-04-06 07:56 51°11.747 2°46.872 14.3 337 8.4 101600 65
2005-04-06 07:57 51°11.65 2°46.55 16.7 334 8.5 101590 64
2005-04-06 07:58 51°11.554 2°46.233 16 339 8.5 101590 65
2005-04-06 07:59 51°11.456 2°45.92 16.5 336 8.5 101580 65
2005-04-06 08:00 51°11.359 2°45.609 15.5 335 8.5 101580 66
2005-04-06 08:01 51°11.265 2°45.3 17.1 334 8.5 101570 66
2005-04-06 08:02 51°11.169 2°44.988 15.6 333 8.5 101570 65
2005-04-06 08:03 51°11.073 2°44.678 15.7 330 8.5 101570 66
2005-04-06 08:04 51°10.988 2°44.361 14.9 328 8.4 101580 67
2005-04-06 08:05 51°10.906 2°44.041 14.1 335 8.4 101590 66
2005-04-06 08:06 51°10.824 2°43.727 15.4 328 8.5 101580 67
2005-04-06 08:07 51°10.741 2°43.409 14.4 321 8.6 101580 65
2005-04-06 08:08 51°10.659 2°43.095 15.1 332 8.6 101570 63
2005-04-06 08:09 51°10.578 2°42.782 16 337 8.7 101570 64
2005-04-06 08:10 51°10.499 2°42.481 16.1 334 8.7 101560 64
2005-04-06 08:11 51°10.414 2°42.161 15.7 330 8.7 101560 65
2005-04-06 08:12 51°10.336 2°41.863 14.5 323 8.7 101570 67
2005-04-06 08:13 51°10.254 2°41.546 17.2 331 8.6 101560 64
2005-04-06 08:14 51°10.175 2°41.239 15.7 329 8.7 101550 66
2005-04-06 08:15 51°10.094 2°40.928 17.1 336 8.6 101560 67
2005-04-06 08:16 51°10.013 2°40.621 14.9 333 8.6 101540 66
2005-04-06 08:17 51°9.932 2°40.317 16 335 8.6 101550 66
2005-04-06 08:18 51°9.849 2°40.009 15.8 336 8.6 101550 67
2005-04-06 08:19 51°9.768 2°39.706 17.9 335 8.7 101530 65
2005-04-06 08:20 51°9.686 2°39.405 17.9 333 8.7 101550 65
2005-04-06 08:21 51°9.604 2°39.104 16.5 335 8.7 101540 66
2005-04-06 08:22 51°9.523 2°38.806 14.1 333 8.7 101540 66
2005-04-06 08:23 51°9.439 2°38.506 14.4 330 8.7 101540 65
2005-04-06 08:24 51°9.357 2°38.21 15.1 329 8.8 101530 65
2005-04-06 08:25 51°9.293 2°37.946 12.6 325 8.7 101540 64
2005-04-06 08:26 51°9.237 2°37.797 11.1 318 8.7 101540 66
2005-04-06 08:27 51°9.185 2°37.683 13.2 319 8.8 101540 65
2005-04-06 08:28 51°9.142 2°37.545 10.8 322 8.8 101540 64
2005-04-06 08:29 51°9.108 2°37.379 12.5 312 8.7 101540 65
2005-04-06 08:30 51°9.095 2°37.223 9.5 303 8.8 101540 65
2005-04-06 08:31 51°9.073 2°37.163 10.1 332 8.8 101540 66
2005-04-06 08:32 51°9.057 2°37.164 9.2 329 8.8 101550 67
2005-04-06 08:33 51°9.047 2°37.156 9.4 230 8.8 101540 65
2005-04-06 08:34 51°9.052 2°37.13 9.1 281 8.9 101540 66
2005-04-06 08:35 51°9.075 2°37.102 10 263 8.9 101550 67
2005-04-06 08:36 51°9.112 2°37.082 8.6 244 8.9 101550 65
2005-04-06 08:37 51°9.159 2°37.076 6 229 8.9 101540 66
2005-04-06 08:38 51°9.214 2°37.095 3.3 192 8.8 101550 66
2005-04-06 08:39 51°9.263 2°37.147 6.9 152 8.9 101550 66
2005-04-06 08:40 51°9.306 2°37.228 7.5 127 8.8 101560 67
2005-04-06 08:41 51°9.304 2°37.347 9.3 50 8.8 101540 68
2005-04-06 08:42 51°9.246 2°37.383 11.7 333 8.8 101530 67
2005-04-06 08:43 51°9.21 2°37.286 11 319 8.9 101510 65
2005-04-06 08:44 51°9.167 2°37.182 9.9 318 8.9 101520 68
2005-04-06 08:45 51°9.172 2°37.167 5.4 258 8.9 101520 68
2005-04-06 08:46 51°9.193 2°37.184 6.8 255 9 101540 65
2005-04-06 08:47 51°9.212 2°37.205 7.5 264 9 101510 63
2005-04-06 08:48 51°9.229 2°37.23 9 268 9 101520 65
2005-04-06 08:49 51°9.245 2°37.259 8.2 279 9.1 101530 66
2005-04-06 08:50 51°9.26 2°37.289 6.9 274 9.1 101530 66
2005-04-06 08:51 51°9.276 2°37.32 8.1 286 9.1 101520 65
2005-04-06 08:52 51°9.292 2°37.35 9.3 276 9.1 101520 64
2005-04-06 08:53 51°9.308 2°37.383 8.3 280 9.2 101520 66
2005-04-06 08:54 51°9.325 2°37.417 8.5 295 9.2 101520 65
2005-04-06 08:55 51°9.343 2°37.451 9.8 284 9.2 101510 63
2005-04-06 08:56 51°9.362 2°37.486 11.8 269 9.3 101520 65
2005-04-06 08:57 51°9.383 2°37.524 11 266 9.3 101510 64
2005-04-06 08:58 51°9.402 2°37.56 10.1 271 9.3 101510 63
2005-04-06 08:59 51°9.423 2°37.597 9.1 267 9.3 101510 65
2005-04-06 09:00 51°9.443 2°37.632 8.4 276 9.3 101500 63
2005-04-06 09:01 51°9.463 2°37.668 8.6 277 9.3 101510 65
2005-04-06 09:02 51°9.483 2°37.704 10.2 275 9.3 101500 64
2005-04-06 09:03 51°9.504 2°37.741 10.9 268 9.3 101500 63
2005-04-06 09:04 51°9.525 2°37.777 8.7 271 9.3 101500 65
2005-04-06 09:05 51°9.546 2°37.815 9.2 280 9.3 101500 65
2005-04-06 09:06 51°9.569 2°37.845 9.5 279 9.3 101500 64
2005-04-06 09:07 51°9.577 2°37.787 9.7 317 9.4 101500 65
2005-04-06 09:08 51°9.559 2°37.732 10.3 325 9.3 101490 64
2005-04-06 09:09 51°9.534 2°37.688 10 325 9.4 101490 64
2005-04-06 09:10 51°9.514 2°37.639 10.4 314 9.3 101490 65
2005-04-06 09:11 51°9.508 2°37.578 10.6 303 9.3 101480 63
2005-04-06 09:12 51°9.508 2°37.507 9.5 312 9.4 101490 64
2005-04-06 09:13 51°9.517 2°37.434 9.3 294 9.4 101490 65
2005-04-06 09:14 51°9.52 2°37.369 9.6 315 9.4 101490 64
2005-04-06 09:15 51°9.498 2°37.318 10.2 321 9.4 101490 64
2005-04-06 09:16 51°9.475 2°37.266 9.2 323 9.4 101480 64
2005-04-06 09:17 51°9.452 2°37.212 10.2 324 9.4 101490 66
2005-04-06 09:18 51°9.429 2°37.157 9.2 316 9.4 101480 65
2005-04-06 09:19 51°9.403 2°37.107 9.6 324 9.4 101490 66
2005-04-06 09:20 51°9.376 2°37.056 10.2 324 9.4 101490 66
2005-04-06 09:21 51°9.35 2°37.005 10.5 323 9.4 101480 63
2005-04-06 09:22 51°9.325 2°36.955 10.4 325 9.4 101480 65
2005-04-06 09:23 51°9.298 2°36.904 10.9 324 9.4 101480 66
2005-04-06 09:24 51°9.271 2°36.852 9.8 323 9.5 101480 65
2005-04-06 09:25 51°9.244 2°36.8 9 323 9.5 101480 65
2005-04-06 09:26 51°9.219 2°36.746 10.6 329 9.5 101480 65
2005-04-06 09:27 51°9.196 2°36.69 9 326 9.5 101470 64
2005-04-06 09:28 51°9.172 2°36.635 11.5 332 9.5 101470 66
2005-04-06 09:29 51°9.149 2°36.581 9.4 325 9.6 101470 64
2005-04-06 09:30 51°9.125 2°36.526 12.7 328 9.6 101470 64
2005-04-06 09:31 51°9.108 2°36.465 10 316 9.6 101460 63
2005-04-06 09:32 51°9.102 2°36.385 10.9 313 9.6 101460 64
2005-04-06 09:33 51°9.114 2°36.303 11.2 304 9.6 101460 63
2005-04-06 09:34 51°9.137 2°36.23 11.5 297 9.7 101470 65
2005-04-06 09:35 51°9.172 2°36.165 11.2 267 9.7 101460 63
2005-04-06 09:36 51°9.285 2°36.181 6.2 175 9.8 101480 64
2005-04-06 09:37 51°9.354 2°36.3 7.9 136 9.8 101490 62
2005-04-06 09:38 51°9.394 2°36.427 6.1 121 9.7 101480 65
2005-04-06 09:39 51°9.424 2°36.551 9.5 120 9.7 101490 63
2005-04-06 09:40 51°9.45 2°36.673 7.8 115 9.7 101480 63
2005-04-06 09:41 51°9.471 2°36.781 10.1 118 9.7 101480 64
2005-04-06 09:42 51°9.49 2°36.871 9.5 115 9.7 101480 66
2005-04-06 09:43 51°9.511 2°36.948 8.9 118 9.7 101480 64
2005-04-06 09:44 51°9.531 2°37.014 8.7 109 9.7 101480 63
2005-04-06 09:45 51°9.553 2°37.072 8.5 119 9.7 101470 64
2005-04-06 09:46 51°9.574 2°37.126 8.4 116 9.8 101470 64
2005-04-06 09:47 51°9.596 2°37.179 8.7 123 9.7 101470 66
2005-04-06 09:48 51°9.62 2°37.23 11.3 127 9.7 101470 63
2005-04-06 09:49 51°9.644 2°37.28 9.6 122 9.8 101460 64
2005-04-06 09:50 51°9.667 2°37.331 9 123 9.8 101460 64
2005-04-06 09:51 51°9.689 2°37.383 9 118 9.8 101460 64
2005-04-06 09:52 51°9.711 2°37.44 8.6 126 9.7 101460 66
2005-04-06 09:53 51°9.733 2°37.497 9.5 113 9.8 101460 61
2005-04-06 09:54 51°9.755 2°37.558 10.3 107 9.8 101450 64
2005-04-06 09:55 51°9.777 2°37.617 8.6 115 9.8 101450 63
2005-04-06 09:56 51°9.798 2°37.676 8.3 117 9.8 101450 64
2005-04-06 09:57 51°9.821 2°37.736 9 120 9.8 101450 63
2005-04-06 09:58 51°9.844 2°37.801 9.1 115 9.8 101440 65
2005-04-06 09:59 51°9.866 2°37.869 8.2 110 9.7 101450 64
2005-04-06 10:00 51°9.886 2°37.941 10.1 114 9.8 101440 65
2005-04-06 10:01 51°9.907 2°38.017 9.1 116 9.7 101450 63
2005-04-06 10:02 51°9.927 2°38.094 7.8 111 9.8 101440 65
2005-04-06 10:03 51°9.945 2°38.17 9.5 109 9.8 101440 64
2005-04-06 10:04 51°9.963 2°38.247 8.8 115 9.8 101440 63
2005-04-06 10:05 51°9.983 2°38.325 10.2 111 9.8 101430 65
2005-04-06 10:06 51°10.004 2°38.413 10.2 119 9.9 101440 62
2005-04-06 10:07 51°10.023 2°38.528 8.5 112 9.9 101430 64
2005-04-06 10:08 51°10.046 2°38.658 8.5 119 9.9 101430 65
2005-04-06 10:09 51°10.072 2°38.794 9.5 105 9.9 101430 64
2005-04-06 10:10 51°10.088 2°38.936 10.1 101 9.9 101420 64
2005-04-06 10:11 51°10.1 2°39.049 10.7 103 9.9 101430 62
2005-04-06 10:12 51°10.111 2°39.161 9.7 96 10 101430 61
2005-04-06 10:13 51°10.107 2°39.381 9.6 83 10 101410 62
2005-04-06 10:14 51°10.107 2°39.71 9.1 79 10 101410 62
2005-04-06 10:15 51°10.121 2°40.061 10.2 84 10 101370 61
2005-04-06 10:16 51°10.136 2°40.333 11.3 93 10.1 101400 63
2005-04-06 10:17 51°10.133 2°40.496 10.6 94 10.1 101390 60
2005-04-06 10:18 51°10.123 2°40.623 11.8 91 10.1 101380 62
2005-04-06 10:19 51°10.127 2°40.886 8.5 80 10.2 101370 60
2005-04-06 10:20 51°10.169 2°41.27 9 100 10.2 101350 60
2005-04-06 10:21 51°10.256 2°41.654 10.5 89 10.2 101350 62
2005-04-06 10:22 51°10.344 2°42.03 8.6 86 10.3 101350 60
2005-04-06 10:23 51°10.432 2°42.404 9.4 83 10.3 101390 60
2005-04-06 10:24 51°10.521 2°42.787 9.7 93 10.4 101380 60
2005-04-06 10:25 51°10.608 2°43.164 9.5 92 10.3 101390 61
2005-04-06 10:26 51°10.677 2°43.551 8.6 101 10.4 101380 61
2005-04-06 10:27 51°10.779 2°43.916 7.3 84 10.4 101380 58
2005-04-06 10:28 51°10.894 2°44.275 6.8 115 10.4 101370 58
2005-04-06 10:29 51°11.015 2°44.627 7.2 112 10.5 101390 60
2005-04-06 10:30 51°11.145 2°44.981 6.9 97 10.5 101390 59
2005-04-06 10:31 51°11.273 2°45.329 8.5 94 10.6 101380 60
2005-04-06 10:32 51°11.396 2°45.679 8.8 114 10.6 101370 57
2005-04-06 10:33 51°11.522 2°46.032 10 121 10.7 101380 61
2005-04-06 10:34 51°11.648 2°46.387 5.3 117 10.6 101380 58
2005-04-06 10:35 51°11.776 2°46.74 5.2 104 10.6 101370 59
2005-04-06 10:36 51°11.902 2°47.092 6.4 122 10.7 101370 59
2005-04-06 10:37 51°12.027 2°47.446 6.4 119 10.6 101370 59
2005-04-06 10:38 51°12.157 2°47.802 6.2 107 10.7 101370 57
2005-04-06 10:39 51°12.287 2°48.151 5.5 100 10.7 101360 57
2005-04-06 10:40 51°12.421 2°48.499 7.5 134 10.8 101360 58
2005-04-06 10:41 51°12.561 2°48.838 5.6 126 10.8 101370 60
2005-04-06 10:42 51°12.7 2°49.182 7 117 10.8 101360 58
2005-04-06 10:43 51°12.83 2°49.535 6.6 116 10.8 101360 59
2005-04-06 10:44 51°12.957 2°49.893 5.8 110 10.8 101350 60
2005-04-06 10:45 51°13.087 2°50.249 3.6 117 10.8 101360 60
2005-04-06 10:46 51°13.216 2°50.606 6.8 94 10.8 101350 58
2005-04-06 10:47 51°13.341 2°50.961 7.1 120 10.8 101350 57
2005-04-06 10:48 51°13.471 2°51.325 5 122 10.9 101350 58
2005-04-06 10:49 51°13.599 2°51.682 6.2 97 10.9 101360 59
2005-04-06 10:50 51°13.73 2°52.04 5.2 105 10.9 101350 58
2005-04-06 10:51 51°13.861 2°52.405 7.1 98 10.9 101350 59
2005-04-06 10:52 51°13.99 2°52.765 8 130 10.9 101340 57
2005-04-06 10:53 51°14.121 2°53.131 4.7 118 11 101350 58
2005-04-06 10:54 51°14.241 2°53.499 4.6 109 11 101340 59
2005-04-06 10:55 51°14.349 2°53.864 9.2 124 11 101340 58
2005-04-06 10:56 51°14.455 2°54.236 8.6 105 11 101340 58
2005-04-06 10:57 51°14.473 2°54.597 10.4 80 11.1 101330 57
2005-04-06 10:58 51°14.414 2°54.903 10.8 72 11.2 101310 56
2005-04-06 10:59 51°14.337 2°55.114 12.8 63 11.2 101310 55
2005-04-06 11:00 51°14.246 2°55.285 6.3 58 11.3 101320 56
2005-04-06 11:01 51°14.15 2°55.399 9.9 49 11.6 101320 54
2005-04-06 11:02 51°14.057 2°55.471 8.6 25 11.7 101330 54
2005-04-06 11:03 51°13.967 2°55.539 7.3 43 11.7 101320 53
2005-04-06 11:04 51°13.875 2°55.606 7.1 30 11.8 101320 54
2005-04-06 11:05 51°13.783 2°55.679 9.7 49 11.9 101330 53
2005-04-06 11:06 51°13.712 2°55.788 8 71 11.9 101330 54
2005-04-06 11:07 51°13.663 2°55.898 3.6 54 11.9 101310 54
2005-04-06 11:08 51°13.626 2°55.991 9.9 58 12 101320 54
2005-04-06 11:09 51°13.606 2°56.07 11.6 90 12 101330 53
2005-04-06 11:10 51°13.596 2°56.1 9 103 11.9 101320 53
2005-04-06 11:11 51°13.597 2°56.101 8.7 95 11.9 101330 54
2005-04-06 11:12 51°13.595 2°56.105 7.5 111 11.9 101330 53